TFM - Tactical Decision Aid (Experimental) INFO Settings
ID: Runway Winds: CIG/VIS Threshold: METAR Board: Map:

Kclt - Charlotte-Douglas Intl

Updated at: 1018 UTC 02 Aug 2015
Latest TAF at: 0856 UTC 02 Aug 2015

TAF Board

Time0952Z02/11Z02/12Z02/13Z02/14Z02/15Z02/16Z02/17Z02/18Z02/19Z02/20Z02/21Z02/22Z02/23Z
TypeOBSPRVLPRVLPRVLPRVLPRVLPRVLPRVLPRVLPRVLPRVLPRVLPRVLPRVL
VIS10>6>6>6>6>6>6>6>6>6>6>6>6>6
CIG----------------------------
CoverSCTFEWFEWFEWFEWFEWFEWFEWFEWFEWFEWFEWFEWFEW
FltCatVFRVFRVFRVFRVFRVFRVFRVFRVFRVFRVFRVFRVFRVFR
WX----------------------------
WDir36020202050505050505050505050
WSpd53337777777777
WGst----------------------------
TAF
KCLT 020856Z 0209/0306 02003KT P6SM FEW250
  TEMPO 0209/0211 BKN250
  FM021400 05007KT P6SM FEW060
  FM030300 11004KT P6SM FEW060


METAR
KCLT 020952Z 36005KT 10SM FEW090 SCT250 20/14 A2997 RMK AO2 SLP136 T02000144
KCLT 020852Z 01004KT 10SM FEW250 22/14 A2995 RMK AO2 SLP131 T02170139 56003

TAF/METAR Board Legend

Potential Impact
  None Marginal Slight Moderate High
Visibility (sm) > ≤X≤ <
Ceiling (100 ft) > ≤X≤ <
Wind Speed (kt) <10 10≤X<20 20≤X<30 ≥30
Wind Gust (kt) <15 15≤X<25 25≤X<35 ≥35
Weather No Wx Reported VCTS -TS,-FZRA TS,FZRA +TS,+FZRA